Grand Gorge, New York
Current Conditions -  °F | °C
As of 4:51 AM on Thursday 18 Dec 2014 (Local Time) from KALB Reporting Station
Light Snow Light Snow  
Wind Chill: -3°   Ceiling: 2400
Heat Index:   Visibility: 6mi
Dew Point: -2°   Wind: 14mph
Humidity: 76%   Direction: 280°W
Pressure: 29.86"   Gusts: NA
Location:  42.36°N, 74.49°W
Report Text: KALB 180951Z 28012KT 6SM -SN BKN024 BKN030 OVC041 02/M02 A2986 RMK AO2 SLP112 P0000 T00171022
Loading
Personal Weather Stations






























Interactive Weather Map New forecast layout! Learn more

10-Day Weather Forecast

Advertisements
Track Severe Weather on mobile